sensor_id;sensor_type;location;lat;lon;timestamp;temperature;humidity
72710;SHT30;60827;48.398;-4.498;2022-08-25T00:01:16;22.15;73.22
72710;SHT30;60827;48.398;-4.498;2022-08-25T00:03:43;22.17;73.23
72710;SHT30;60827;48.398;-4.498;2022-08-25T00:06:09;22.18;73.27
72710;SHT30;60827;48.398;-4.498;2022-08-25T00:08:35;22.18;73.38
72710;SHT30;60827;48.398;-4.498;2022-08-25T00:11:08;22.17;73.46
72710;SHT30;60827;48.398;-4.498;2022-08-25T00:13:36;22.18;73.46
72710;SHT30;60827;48.398;-4.498;2022-08-25T00:16:01;22.18;73.51
72710;SHT30;60827;48.398;-4.498;2022-08-25T00:18:27;22.21;73.58
72710;SHT30;60827;48.398;-4.498;2022-08-25T00:20:52;22.19;73.57
72710;SHT30;60827;48.398;-4.498;2022-08-25T00:23:17;22.22;73.52
72710;SHT30;60827;48.398;-4.498;2022-08-25T00:25:43;22.24;73.48
72710;SHT30;60827;48.398;-4.498;2022-08-25T00:28:08;22.24;73.44
72710;SHT30;60827;48.398;-4.498;2022-08-25T00:30:35;22.22;73.53
72710;SHT30;60827;48.398;-4.498;2022-08-25T00:33:03;22.22;73.53
72710;SHT30;60827;48.398;-4.498;2022-08-25T00:35:29;22.21;73.57
72710;SHT30;60827;48.398;-4.498;2022-08-25T00:37:55;22.21;73.55
72710;SHT30;60827;48.398;-4.498;2022-08-25T00:40:22;22.21;73.51
72710;SHT30;60827;48.398;-4.498;2022-08-25T00:42:48;22.18;73.62
72710;SHT30;60827;48.398;-4.498;2022-08-25T00:45:13;22.19;73.58
72710;SHT30;60827;48.398;-4.498;2022-08-25T00:47:39;22.17;73.63
72710;SHT30;60827;48.398;-4.498;2022-08-25T00:50:07;22.14;73.77
72710;SHT30;60827;48.398;-4.498;2022-08-25T00:52:37;22.14;73.74
72710;SHT30;60827;48.398;-4.498;2022-08-25T00:55:09;22.14;73.79
72710;SHT30;60827;48.398;-4.498;2022-08-25T00:57:39;22.14;73.83
72710;SHT30;60827;48.398;-4.498;2022-08-25T01:00:16;22.18;73.79
72710;SHT30;60827;48.398;-4.498;2022-08-25T01:02:41;22.19;73.88
72710;SHT30;60827;48.398;-4.498;2022-08-25T01:05:07;22.15;73.90
72710;SHT30;60827;48.398;-4.498;2022-08-25T01:07:33;22.15;73.96
72710;SHT30;60827;48.398;-4.498;2022-08-25T01:09:58;22.15;73.93
72710;SHT30;60827;48.398;-4.498;2022-08-25T01:12:25;22.18;73.94
72710;SHT30;60827;48.398;-4.498;2022-08-25T01:14:51;22.15;74.12
72710;SHT30;60827;48.398;-4.498;2022-08-25T01:17:17;22.18;74.08
72710;SHT30;60827;48.398;-4.498;2022-08-25T01:19:42;22.19;74.22
72710;SHT30;60827;48.398;-4.498;2022-08-25T01:22:08;22.19;74.31
72710;SHT30;60827;48.398;-4.498;2022-08-25T01:27:23;22.15;74.41
72710;SHT30;60827;48.398;-4.498;2022-08-25T01:29:48;22.14;74.49
72710;SHT30;60827;48.398;-4.498;2022-08-25T01:32:14;22.14;74.52
72710;SHT30;60827;48.398;-4.498;2022-08-25T01:34:41;22.09;74.61
72710;SHT30;60827;48.398;-4.498;2022-08-25T01:37:08;22.09;74.58
72710;SHT30;60827;48.398;-4.498;2022-08-25T01:39:34;22.07;74.60
72710;SHT30;60827;48.398;-4.498;2022-08-25T01:42:17;22.04;74.71
72710;SHT30;60827;48.398;-4.498;2022-08-25T01:44:45;22.07;74.63
72710;SHT30;60827;48.398;-4.498;2022-08-25T01:47:11;22.05;74.74
72710;SHT30;60827;48.398;-4.498;2022-08-25T01:49:37;22.01;74.76
72710;SHT30;60827;48.398;-4.498;2022-08-25T01:52:19;22.00;74.78
72710;SHT30;60827;48.398;-4.498;2022-08-25T01:54:45;21.98;74.67
72710;SHT30;60827;48.398;-4.498;2022-08-25T01:57:10;22.00;74.74
72710;SHT30;60827;48.398;-4.498;2022-08-25T01:59:36;21.93;74.86
72710;SHT30;60827;48.398;-4.498;2022-08-25T02:02:02;21.91;74.84
72710;SHT30;60827;48.398;-4.498;2022-08-25T02:04:28;21.88;74.85
72710;SHT30;60827;48.398;-4.498;2022-08-25T02:06:57;21.88;74.85
72710;SHT30;60827;48.398;-4.498;2022-08-25T02:09:23;21.84;74.87
72710;SHT30;60827;48.398;-4.498;2022-08-25T02:11:49;21.83;74.94
72710;SHT30;60827;48.398;-4.498;2022-08-25T02:14:15;21.78;74.92
72710;SHT30;60827;48.398;-4.498;2022-08-25T02:16:46;21.74;74.91
72710;SHT30;60827;48.398;-4.498;2022-08-25T02:19:12;21.70;74.86
72710;SHT30;60827;48.398;-4.498;2022-08-25T02:21:38;21.66;74.83
72710;SHT30;60827;48.398;-4.498;2022-08-25T02:24:04;21.66;74.74
72710;SHT30;60827;48.398;-4.498;2022-08-25T02:26:29;21.58;74.67
72710;SHT30;60827;48.398;-4.498;2022-08-25T02:28:55;21.51;74.62
72710;SHT30;60827;48.398;-4.498;2022-08-25T02:31:23;21.51;74.63
72710;SHT30;60827;48.398;-4.498;2022-08-25T02:33:50;21.45;74.68
72710;SHT30;60827;48.398;-4.498;2022-08-25T02:36:16;21.42;74.67
72710;SHT30;60827;48.398;-4.498;2022-08-25T02:38:41;21.39;74.67
72710;SHT30;60827;48.398;-4.498;2022-08-25T02:41:11;21.33;74.73
72710;SHT30;60827;48.398;-4.498;2022-08-25T02:43:38;21.33;74.74
72710;SHT30;60827;48.398;-4.498;2022-08-25T02:46:04;21.29;74.72
72710;SHT30;60827;48.398;-4.498;2022-08-25T02:48:30;21.25;74.76
72710;SHT30;60827;48.398;-4.498;2022-08-25T02:50:58;21.22;74.80
72710;SHT30;60827;48.398;-4.498;2022-08-25T02:53:25;21.18;74.82
72710;SHT30;60827;48.398;-4.498;2022-08-25T02:55:51;21.16;74.82
72710;SHT30;60827;48.398;-4.498;2022-08-25T02:58:16;21.16;74.83
72710;SHT30;60827;48.398;-4.498;2022-08-25T03:00:42;21.13;74.90
72710;SHT30;60827;48.398;-4.498;2022-08-25T03:03:07;21.12;74.85
72710;SHT30;60827;48.398;-4.498;2022-08-25T03:05:33;21.12;74.88
72710;SHT30;60827;48.398;-4.498;2022-08-25T03:07:58;21.10;74.88
72710;SHT30;60827;48.398;-4.498;2022-08-25T03:10:24;21.09;74.89
72710;SHT30;60827;48.398;-4.498;2022-08-25T03:12:50;21.07;74.94
72710;SHT30;60827;48.398;-4.498;2022-08-25T03:15:16;21.03;74.98
72710;SHT30;60827;48.398;-4.498;2022-08-25T03:17:43;20.99;75.00
72710;SHT30;60827;48.398;-4.498;2022-08-25T03:20:09;21.00;74.95
72710;SHT30;60827;48.398;-4.498;2022-08-25T03:22:34;20.96;74.92
72710;SHT30;60827;48.398;-4.498;2022-08-25T03:25:01;20.98;74.88
72710;SHT30;60827;48.398;-4.498;2022-08-25T03:27:45;20.94;74.82
72710;SHT30;60827;48.398;-4.498;2022-08-25T03:30:11;20.88;74.89
72710;SHT30;60827;48.398;-4.498;2022-08-25T03:32:40;20.88;74.80
72710;SHT30;60827;48.398;-4.498;2022-08-25T03:35:06;20.84;74.77
72710;SHT30;60827;48.398;-4.498;2022-08-25T03:37:31;20.78;74.76
72710;SHT30;60827;48.398;-4.498;2022-08-25T03:39:57;20.79;74.76
72710;SHT30;60827;48.398;-4.498;2022-08-25T03:42:22;20.78;74.72
72710;SHT30;60827;48.398;-4.498;2022-08-25T03:44:50;20.76;74.77
72710;SHT30;60827;48.398;-4.498;2022-08-25T03:47:16;20.76;74.81
72710;SHT30;60827;48.398;-4.498;2022-08-25T03:49:41;20.75;74.78
72710;SHT30;60827;48.398;-4.498;2022-08-25T03:52:07;20.76;74.76
72710;SHT30;60827;48.398;-4.498;2022-08-25T03:54:32;20.74;74.78
72710;SHT30;60827;48.398;-4.498;2022-08-25T03:56:58;20.72;74.83
72710;SHT30;60827;48.398;-4.498;2022-08-25T03:59:24;20.69;74.87
72710;SHT30;60827;48.398;-4.498;2022-08-25T04:01:51;20.71;74.94
72710;SHT30;60827;48.398;-4.498;2022-08-25T04:04:17;20.69;74.89
72710;SHT30;60827;48.398;-4.498;2022-08-25T04:06:43;20.72;74.81
72710;SHT30;60827;48.398;-4.498;2022-08-25T04:09:09;20.72;74.85
72710;SHT30;60827;48.398;-4.498;2022-08-25T04:11:36;20.74;74.87
72710;SHT30;60827;48.398;-4.498;2022-08-25T04:14:02;20.71;74.93
72710;SHT30;60827;48.398;-4.498;2022-08-25T04:16:30;20.71;74.86
72710;SHT30;60827;48.398;-4.498;2022-08-25T04:18:57;20.72;74.84
72710;SHT30;60827;48.398;-4.498;2022-08-25T04:21:23;20.69;74.76
72710;SHT30;60827;48.398;-4.498;2022-08-25T04:23:50;20.72;74.72
72710;SHT30;60827;48.398;-4.498;2022-08-25T04:26:21;20.71;74.65
72710;SHT30;60827;48.398;-4.498;2022-08-25T04:28:47;20.67;74.55
72710;SHT30;60827;48.398;-4.498;2022-08-25T04:31:18;20.67;74.50
72710;SHT30;60827;48.398;-4.498;2022-08-25T04:33:44;20.68;74.37
72710;SHT30;60827;48.398;-4.498;2022-08-25T04:36:13;20.67;74.31
72710;SHT30;60827;48.398;-4.498;2022-08-25T04:38:40;20.67;74.21
72710;SHT30;60827;48.398;-4.498;2022-08-25T04:41:07;20.65;74.12
72710;SHT30;60827;48.398;-4.498;2022-08-25T04:43:33;20.59;74.11
72710;SHT30;60827;48.398;-4.498;2022-08-25T04:46:06;20.58;74.08
72710;SHT30;60827;48.398;-4.498;2022-08-25T04:48:33;20.57;74.02
72710;SHT30;60827;48.398;-4.498;2022-08-25T04:51:04;20.52;73.97
72710;SHT30;60827;48.398;-4.498;2022-08-25T04:53:31;20.49;73.84
72710;SHT30;60827;48.398;-4.498;2022-08-25T04:55:59;20.45;73.80
72710;SHT30;60827;48.398;-4.498;2022-08-25T04:58:25;20.47;73.65
72710;SHT30;60827;48.398;-4.498;2022-08-25T05:00:51;20.43;73.64
72710;SHT30;60827;48.398;-4.498;2022-08-25T05:03:17;20.43;73.46
72710;SHT30;60827;48.398;-4.498;2022-08-25T05:05:42;20.40;73.43
72710;SHT30;60827;48.398;-4.498;2022-08-25T05:08:07;20.35;73.25
72710;SHT30;60827;48.398;-4.498;2022-08-25T05:10:38;20.30;73.19
72710;SHT30;60827;48.398;-4.498;2022-08-25T05:13:03;20.28;73.25
72710;SHT30;60827;48.398;-4.498;2022-08-25T05:15:29;20.25;73.21
72710;SHT30;60827;48.398;-4.498;2022-08-25T05:18:15;20.20;73.17
72710;SHT30;60827;48.398;-4.498;2022-08-25T05:20:40;20.24;73.16
72710;SHT30;60827;48.398;-4.498;2022-08-25T05:23:06;20.20;73.16
72710;SHT30;60827;48.398;-4.498;2022-08-25T05:25:31;20.18;73.09
72710;SHT30;60827;48.398;-4.498;2022-08-25T05:27:57;20.18;72.96
72710;SHT30;60827;48.398;-4.498;2022-08-25T05:30:22;20.17;72.93
72710;SHT30;60827;48.398;-4.498;2022-08-25T05:32:48;20.14;72.93
72710;SHT30;60827;48.398;-4.498;2022-08-25T05:35:13;20.14;72.88
72710;SHT30;60827;48.398;-4.498;2022-08-25T05:37:40;20.12;72.76
72710;SHT30;60827;48.398;-4.498;2022-08-25T05:40:06;20.09;72.78
72710;SHT30;60827;48.398;-4.498;2022-08-25T05:42:33;20.07;72.72
72710;SHT30;60827;48.398;-4.498;2022-08-25T05:44:58;20.03;72.76
72710;SHT30;60827;48.398;-4.498;2022-08-25T05:47:23;20.03;72.81
72710;SHT30;60827;48.398;-4.498;2022-08-25T05:49:49;20.00;72.79
72710;SHT30;60827;48.398;-4.498;2022-08-25T05:52:15;19.96;72.67
72710;SHT30;60827;48.398;-4.498;2022-08-25T05:54:40;19.90;72.65
72710;SHT30;60827;48.398;-4.498;2022-08-25T05:57:06;19.86;72.70
72710;SHT30;60827;48.398;-4.498;2022-08-25T05:59:31;19.86;72.63
72710;SHT30;60827;48.398;-4.498;2022-08-25T06:01:57;19.85;72.62
72710;SHT30;60827;48.398;-4.498;2022-08-25T06:04:42;19.80;72.54
72710;SHT30;60827;48.398;-4.498;2022-08-25T06:07:07;19.80;72.55
72710;SHT30;60827;48.398;-4.498;2022-08-25T06:09:33;19.77;72.54
72710;SHT30;60827;48.398;-4.498;2022-08-25T06:11:58;19.77;72.48
72710;SHT30;60827;48.398;-4.498;2022-08-25T06:14:24;19.75;72.36
72710;SHT30;60827;48.398;-4.498;2022-08-25T06:16:50;19.75;72.38
72710;SHT30;60827;48.398;-4.498;2022-08-25T06:19:16;19.73;72.38
72710;SHT30;60827;48.398;-4.498;2022-08-25T06:21:41;19.75;72.40
72710;SHT30;60827;48.398;-4.498;2022-08-25T06:24:08;19.73;72.32
72710;SHT30;60827;48.398;-4.498;2022-08-25T06:26:35;19.75;72.25
72710;SHT30;60827;48.398;-4.498;2022-08-25T06:29:00;19.73;72.27
72710;SHT30;60827;48.398;-4.498;2022-08-25T06:31:26;19.77;72.21
72710;SHT30;60827;48.398;-4.498;2022-08-25T06:33:51;19.83;72.38
72710;SHT30;60827;48.398;-4.498;2022-08-25T06:36:17;19.96;72.32
72710;SHT30;60827;48.398;-4.498;2022-08-25T06:38:43;20.04;72.12
72710;SHT30;60827;48.398;-4.498;2022-08-25T06:41:10;20.16;72.00
72710;SHT30;60827;48.398;-4.498;2022-08-25T06:43:38;20.30;71.63
72710;SHT30;60827;48.398;-4.498;2022-08-25T06:46:08;20.41;71.36
72710;SHT30;60827;48.398;-4.498;2022-08-25T06:48:34;20.54;71.02
72710;SHT30;60827;48.398;-4.498;2022-08-25T06:50:59;20.67;70.71
72710;SHT30;60827;48.398;-4.498;2022-08-25T06:53:24;20.76;70.41
72710;SHT30;60827;48.398;-4.498;2022-08-25T06:55:59;20.82;69.82
72710;SHT30;60827;48.398;-4.498;2022-08-25T06:58:24;20.94;69.89
72710;SHT30;60827;48.398;-4.498;2022-08-25T07:00:50;21.02;69.70
72710;SHT30;60827;48.398;-4.498;2022-08-25T07:03:15;21.07;69.52
72710;SHT30;60827;48.398;-4.498;2022-08-25T07:05:54;21.15;69.08
72710;SHT30;60827;48.398;-4.498;2022-08-25T07:08:20;21.22;69.06
72710;SHT30;60827;48.398;-4.498;2022-08-25T07:10:46;21.27;69.02
72710;SHT30;60827;48.398;-4.498;2022-08-25T07:13:12;21.33;68.85
72710;SHT30;60827;48.398;-4.498;2022-08-25T07:15:38;21.42;68.64
72710;SHT30;60827;48.398;-4.498;2022-08-25T07:18:05;21.47;68.59
72710;SHT30;60827;48.398;-4.498;2022-08-25T07:20:32;21.54;68.32
72710;SHT30;60827;48.398;-4.498;2022-08-25T07:22:57;21.60;68.06
72710;SHT30;60827;48.398;-4.498;2022-08-25T07:25:23;21.67;67.77
72710;SHT30;60827;48.398;-4.498;2022-08-25T07:27:48;21.70;67.59
72710;SHT30;60827;48.398;-4.498;2022-08-25T07:30:16;21.76;67.46
72710;SHT30;60827;48.398;-4.498;2022-08-25T07:32:41;21.84;67.30
72710;SHT30;60827;48.398;-4.498;2022-08-25T07:35:07;21.90;67.13
72710;SHT30;60827;48.398;-4.498;2022-08-25T07:37:47;21.97;66.94
72710;SHT30;60827;48.398;-4.498;2022-08-25T07:40:19;22.02;66.80
72710;SHT30;60827;48.398;-4.498;2022-08-25T07:42:45;22.05;66.60
72710;SHT30;60827;48.398;-4.498;2022-08-25T07:45:11;22.12;66.32
72710;SHT30;60827;48.398;-4.498;2022-08-25T07:47:37;22.18;66.08
72710;SHT30;60827;48.398;-4.498;2022-08-25T07:50:06;22.21;65.82
72710;SHT30;60827;48.398;-4.498;2022-08-25T07:52:31;22.28;65.57
72710;SHT30;60827;48.398;-4.498;2022-08-25T07:54:57;22.28;65.27
72710;SHT30;60827;48.398;-4.498;2022-08-25T07:57:25;22.34;65.15
72710;SHT30;60827;48.398;-4.498;2022-08-25T07:59:52;22.38;65.12
72710;SHT30;60827;48.398;-4.498;2022-08-25T08:02:18;22.41;65.09
72710;SHT30;60827;48.398;-4.498;2022-08-25T08:04:43;22.45;64.75
72710;SHT30;60827;48.398;-4.498;2022-08-25T08:07:09;22.46;64.49
72710;SHT30;60827;48.398;-4.498;2022-08-25T08:09:35;22.52;64.28
72710;SHT30;60827;48.398;-4.498;2022-08-25T08:12:02;22.55;64.19
72710;SHT30;60827;48.398;-4.498;2022-08-25T08:14:27;22.57;64.20
72710;SHT30;60827;48.398;-4.498;2022-08-25T08:16:53;22.63;64.18
72710;SHT30;60827;48.398;-4.498;2022-08-25T08:19:18;22.67;63.83
72710;SHT30;60827;48.398;-4.498;2022-08-25T08:21:44;22.70;63.71
72710;SHT30;60827;48.398;-4.498;2022-08-25T08:24:10;22.76;63.49
72710;SHT30;60827;48.398;-4.498;2022-08-25T08:26:36;22.79;63.44
72710;SHT30;60827;48.398;-4.498;2022-08-25T08:29:02;22.80;63.17
72710;SHT30;60827;48.398;-4.498;2022-08-25T08:31:28;22.85;63.16
72710;SHT30;60827;48.398;-4.498;2022-08-25T08:33:56;22.85;62.92
72710;SHT30;60827;48.398;-4.498;2022-08-25T08:36:23;22.85;62.73
72710;SHT30;60827;48.398;-4.498;2022-08-25T08:38:50;22.86;62.57
72710;SHT30;60827;48.398;-4.498;2022-08-25T08:44:14;22.96;62.60
72710;SHT30;60827;48.398;-4.498;2022-08-25T08:49:55;22.83;62.00
72710;SHT30;60827;48.398;-4.498;2022-08-25T08:52:33;22.80;61.98
72710;SHT30;60827;48.398;-4.498;2022-08-25T08:55:06;22.75;61.90
72710;SHT30;60827;48.398;-4.498;2022-08-25T08:57:40;22.67;62.05
72710;SHT30;60827;48.398;-4.498;2022-08-25T09:00:07;22.66;61.91
72710;SHT30;60827;48.398;-4.498;2022-08-25T09:02:50;22.63;61.45
72710;SHT30;60827;48.398;-4.498;2022-08-25T09:05:19;22.62;61.86
72710;SHT30;60827;48.398;-4.498;2022-08-25T09:08:05;22.56;61.31
72710;SHT30;60827;48.398;-4.498;2022-08-25T09:10:39;22.51;61.80
72710;SHT30;60827;48.398;-4.498;2022-08-25T09:15:50;22.57;61.94
72710;SHT30;60827;48.398;-4.498;2022-08-25T09:19:06;22.66;61.48
72710;SHT30;60827;48.398;-4.498;2022-08-25T09:22:00;22.76;61.28
72710;SHT30;60827;48.398;-4.498;2022-08-25T09:27:21;22.87;60.59
72710;SHT30;60827;48.398;-4.498;2022-08-25T09:30:08;22.89;60.23
72710;SHT30;60827;48.398;-4.498;2022-08-25T09:32:40;22.99;60.53
72710;SHT30;60827;48.398;-4.498;2022-08-25T09:35:11;23.07;60.49
72710;SHT30;60827;48.398;-4.498;2022-08-25T09:37:39;23.18;60.23
72710;SHT30;60827;48.398;-4.498;2022-08-25T09:40:04;23.27;59.69
72710;SHT30;60827;48.398;-4.498;2022-08-25T09:42:49;23.36;58.85
72710;SHT30;60827;48.398;-4.498;2022-08-25T09:45:14;23.41;59.28
72710;SHT30;60827;48.398;-4.498;2022-08-25T09:47:44;23.41;58.53
72710;SHT30;60827;48.398;-4.498;2022-08-25T09:50:15;23.47;58.79
72710;SHT30;60827;48.398;-4.498;2022-08-25T09:52:42;23.55;58.55
72710;SHT30;60827;48.398;-4.498;2022-08-25T10:02:41;23.82;57.47
72710;SHT30;60827;48.398;-4.498;2022-08-25T10:05:22;23.90;57.18
72710;SHT30;60827;48.398;-4.498;2022-08-25T10:07:54;23.98;57.47
72710;SHT30;60827;48.398;-4.498;2022-08-25T10:10:34;24.06;56.84
72710;SHT30;60827;48.398;-4.498;2022-08-25T10:13:12;24.08;56.88
72710;SHT30;60827;48.398;-4.498;2022-08-25T10:15:38;24.17;57.03
72710;SHT30;60827;48.398;-4.498;2022-08-25T10:20:41;24.16;56.46
72710;SHT30;60827;48.398;-4.498;2022-08-25T10:23:12;24.17;56.28
72710;SHT30;60827;48.398;-4.498;2022-08-25T10:25:45;24.19;56.08
72710;SHT30;60827;48.398;-4.498;2022-08-25T10:45:22;24.43;55.07
72710;SHT30;60827;48.398;-4.498;2022-08-25T11:04:37;24.76;53.07
72710;SHT30;60827;48.398;-4.498;2022-08-25T11:07:28;24.80;52.81
72710;SHT30;60827;48.398;-4.498;2022-08-25T11:10:07;24.84;52.82
72710;SHT30;60827;48.398;-4.498;2022-08-25T11:12:42;24.87;52.33
72710;SHT30;60827;48.398;-4.498;2022-08-25T11:15:12;24.88;52.27
72710;SHT30;60827;48.398;-4.498;2022-08-25T11:17:50;24.86;51.25
72710;SHT30;60827;48.398;-4.498;2022-08-25T11:20:26;24.80;51.87
72710;SHT30;60827;48.398;-4.498;2022-08-25T11:23:17;24.86;51.37
72710;SHT30;60827;48.398;-4.498;2022-08-25T11:25:50;24.90;51.71
72710;SHT30;60827;48.398;-4.498;2022-08-25T11:28:25;24.98;51.50
72710;SHT30;60827;48.398;-4.498;2022-08-25T11:30:57;25.03;51.87
72710;SHT30;60827;48.398;-4.498;2022-08-25T11:33:24;25.06;51.75
72710;SHT30;60827;48.398;-4.498;2022-08-25T11:42:00;25.04;50.92
72710;SHT30;60827;48.398;-4.498;2022-08-25T11:47:11;25.06;51.49
72710;SHT30;60827;48.398;-4.498;2022-08-25T11:57:44;25.29;51.28
72710;SHT30;60827;48.398;-4.498;2022-08-25T12:02:46;25.37;51.44
72710;SHT30;60827;48.398;-4.498;2022-08-25T12:10:22;25.38;51.17
72710;SHT30;60827;48.398;-4.498;2022-08-25T12:18:05;25.41;51.51
72710;SHT30;60827;48.398;-4.498;2022-08-25T12:23:40;25.52;51.26
72710;SHT30;60827;48.398;-4.498;2022-08-25T12:35:32;25.69;49.89
72710;SHT30;60827;48.398;-4.498;2022-08-25T12:38:09;25.63;48.72
72710;SHT30;60827;48.398;-4.498;2022-08-25T12:40:53;25.65;49.68
72710;SHT30;60827;48.398;-4.498;2022-08-25T12:43:30;25.68;48.59
72710;SHT30;60827;48.398;-4.498;2022-08-25T12:56:54;25.86;47.39
72710;SHT30;60827;48.398;-4.498;2022-08-25T12:59:24;25.94;47.71
72710;SHT30;60827;48.398;-4.498;2022-08-25T13:05:02;26.14;47.07
72710;SHT30;60827;48.398;-4.498;2022-08-25T13:10:47;26.41;45.03
72710;SHT30;60827;48.398;-4.498;2022-08-25T13:13:17;26.48;46.15
72710;SHT30;60827;48.398;-4.498;2022-08-25T13:16:07;26.62;45.79
72710;SHT30;60827;48.398;-4.498;2022-08-25T13:18:36;26.69;45.01
72710;SHT30;60827;48.398;-4.498;2022-08-25T13:21:22;26.82;45.44
72710;SHT30;60827;48.398;-4.498;2022-08-25T13:23:51;27.06;45.11
72710;SHT30;60827;48.398;-4.498;2022-08-25T13:26:32;27.18;43.47
72710;SHT30;60827;48.398;-4.498;2022-08-25T13:29:03;27.32;44.16
72710;SHT30;60827;48.398;-4.498;2022-08-25T13:31:42;27.46;43.55
72710;SHT30;60827;48.398;-4.498;2022-08-25T13:34:19;27.39;42.68
72710;SHT30;60827;48.398;-4.498;2022-08-25T13:36:46;27.49;43.84
72710;SHT30;60827;48.398;-4.498;2022-08-25T13:39:31;27.61;42.53
72710;SHT30;60827;48.398;-4.498;2022-08-25T13:42:02;27.73;42.96
72710;SHT30;60827;48.398;-4.498;2022-08-25T13:44:30;27.80;41.68
72710;SHT30;60827;48.398;-4.498;2022-08-25T13:47:52;27.87;39.63
72710;SHT30;60827;48.398;-4.498;2022-08-25T13:52:49;28.21;41.36
72710;SHT30;60827;48.398;-4.498;2022-08-25T13:55:25;28.45;41.42
72710;SHT30;60827;48.398;-4.498;2022-08-25T13:57:51;28.70;41.69
72710;SHT30;60827;48.398;-4.498;2022-08-25T14:00:45;28.76;39.62
72710;SHT30;60827;48.398;-4.498;2022-08-25T14:03:32;28.89;39.14
72710;SHT30;60827;48.398;-4.498;2022-08-25T14:09:07;29.14;40.61
72710;SHT30;60827;48.398;-4.498;2022-08-25T14:11:46;29.41;41.08
72710;SHT30;60827;48.398;-4.498;2022-08-25T14:14:29;29.60;40.46
72710;SHT30;60827;48.398;-4.498;2022-08-25T14:19:23;30.08;40.50
72710;SHT30;60827;48.398;-4.498;2022-08-25T14:21:50;30.29;40.27
72710;SHT30;60827;48.398;-4.498;2022-08-25T14:24:19;30.40;40.24
72710;SHT30;60827;48.398;-4.498;2022-08-25T14:26:45;30.59;39.85
72710;SHT30;60827;48.398;-4.498;2022-08-25T14:29:12;30.61;39.76
72710;SHT30;60827;48.398;-4.498;2022-08-25T14:31:40;30.81;39.25
72710;SHT30;60827;48.398;-4.498;2022-08-25T14:34:17;30.97;38.12
72710;SHT30;60827;48.398;-4.498;2022-08-25T14:36:44;31.11;38.45
72710;SHT30;60827;48.398;-4.498;2022-08-25T14:39:10;31.24;38.14
72710;SHT30;60827;48.398;-4.498;2022-08-25T14:41:37;31.32;37.78
72710;SHT30;60827;48.398;-4.498;2022-08-25T14:44:06;31.38;37.70
72710;SHT30;60827;48.398;-4.498;2022-08-25T14:46:34;31.45;37.91
72710;SHT30;60827;48.398;-4.498;2022-08-25T14:49:03;31.62;37.48
72710;SHT30;60827;48.398;-4.498;2022-08-25T14:51:30;31.79;37.34
72710;SHT30;60827;48.398;-4.498;2022-08-25T14:53:59;31.94;37.11
72710;SHT30;60827;48.398;-4.498;2022-08-25T14:56:27;32.14;37.10
72710;SHT30;60827;48.398;-4.498;2022-08-25T14:58:52;32.33;36.54
72710;SHT30;60827;48.398;-4.498;2022-08-25T15:01:20;32.34;36.57
72710;SHT30;60827;48.398;-4.498;2022-08-25T15:03:47;32.50;36.57
72710;SHT30;60827;48.398;-4.498;2022-08-25T15:06:16;32.61;36.24
72710;SHT30;60827;48.398;-4.498;2022-08-25T15:08:42;32.74;35.83
72710;SHT30;60827;48.398;-4.498;2022-08-25T15:11:26;32.89;35.79
72710;SHT30;60827;48.398;-4.498;2022-08-25T15:13:52;32.99;34.80
72710;SHT30;60827;48.398;-4.498;2022-08-25T15:16:30;33.07;34.42
72710;SHT30;60827;48.398;-4.498;2022-08-25T15:18:57;33.21;35.51
72710;SHT30;60827;48.398;-4.498;2022-08-25T15:21:22;33.39;34.85
72710;SHT30;60827;48.398;-4.498;2022-08-25T15:23:47;33.49;34.76
72710;SHT30;60827;48.398;-4.498;2022-08-25T15:26:14;33.66;34.74
72710;SHT30;60827;48.398;-4.498;2022-08-25T15:28:45;34.10;33.88
72710;SHT30;60827;48.398;-4.498;2022-08-25T15:31:17;35.00;33.45
72710;SHT30;60827;48.398;-4.498;2022-08-25T15:33:42;36.20;32.08
72710;SHT30;60827;48.398;-4.498;2022-08-25T15:36:09;37.54;30.89
72710;SHT30;60827;48.398;-4.498;2022-08-25T15:38:37;38.89;29.50
72710;SHT30;60827;48.398;-4.498;2022-08-25T15:41:04;39.94;27.90
72710;SHT30;60827;48.398;-4.498;2022-08-25T15:43:30;40.64;27.09
72710;SHT30;60827;48.398;-4.498;2022-08-25T15:45:55;41.28;26.62
72710;SHT30;60827;48.398;-4.498;2022-08-25T15:48:21;41.96;26.27
72710;SHT30;60827;48.398;-4.498;2022-08-25T15:50:47;42.33;25.80
72710;SHT30;60827;48.398;-4.498;2022-08-25T15:53:12;41.45;26.33
72710;SHT30;60827;48.398;-4.498;2022-08-25T15:55:39;40.36;27.19
72710;SHT30;60827;48.398;-4.498;2022-08-25T15:58:10;39.64;27.58
72710;SHT30;60827;48.398;-4.498;2022-08-25T16:00:36;39.10;27.64
72710;SHT30;60827;48.398;-4.498;2022-08-25T16:03:01;38.67;28.09
72710;SHT30;60827;48.398;-4.498;2022-08-25T16:05:27;39.69;26.97
72710;SHT30;60827;48.398;-4.498;2022-08-25T16:07:54;39.16;27.42
72710;SHT30;60827;48.398;-4.498;2022-08-25T16:10:19;39.18;27.43
72710;SHT30;60827;48.398;-4.498;2022-08-25T16:12:45;39.09;27.44
72710;SHT30;60827;48.398;-4.498;2022-08-25T16:15:10;40.15;26.52
72710;SHT30;60827;48.398;-4.498;2022-08-25T16:17:36;41.31;25.59
72710;SHT30;60827;48.398;-4.498;2022-08-25T16:20:02;42.25;24.74
72710;SHT30;60827;48.398;-4.498;2022-08-25T16:22:27;42.81;24.14
72710;SHT30;60827;48.398;-4.498;2022-08-25T16:24:52;43.46;23.60
72710;SHT30;60827;48.398;-4.498;2022-08-25T16:27:18;44.01;23.15
72710;SHT30;60827;48.398;-4.498;2022-08-25T16:29:43;44.50;22.58
72710;SHT30;60827;48.398;-4.498;2022-08-25T16:32:12;45.02;22.10
72710;SHT30;60827;48.398;-4.498;2022-08-25T16:34:38;44.85;22.32
72710;SHT30;60827;48.398;-4.498;2022-08-25T16:37:03;45.21;21.89
72710;SHT30;60827;48.398;-4.498;2022-08-25T16:39:29;45.63;21.43
72710;SHT30;60827;48.398;-4.498;2022-08-25T16:41:54;45.89;21.12
72710;SHT30;60827;48.398;-4.498;2022-08-25T16:44:20;45.92;21.07
72710;SHT30;60827;48.398;-4.498;2022-08-25T16:46:46;46.09;20.77
72710;SHT30;60827;48.398;-4.498;2022-08-25T16:49:13;46.27;20.68
72710;SHT30;60827;48.398;-4.498;2022-08-25T16:51:40;46.48;20.64
72710;SHT30;60827;48.398;-4.498;2022-08-25T16:54:08;46.51;20.50
72710;SHT30;60827;48.398;-4.498;2022-08-25T16:56:52;46.60;20.31
72710;SHT30;60827;48.398;-4.498;2022-08-25T16:59:17;46.54;20.32
72710;SHT30;60827;48.398;-4.498;2022-08-25T17:01:43;46.54;20.29
72710;SHT30;60827;48.398;-4.498;2022-08-25T17:04:09;46.62;20.20
72710;SHT30;60827;48.398;-4.498;2022-08-25T17:06:39;46.46;20.17
72710;SHT30;60827;48.398;-4.498;2022-08-25T17:09:07;46.31;20.12
72710;SHT30;60827;48.398;-4.498;2022-08-25T17:11:36;46.03;20.19
72710;SHT30;60827;48.398;-4.498;2022-08-25T17:14:08;46.00;20.32
72710;SHT30;60827;48.398;-4.498;2022-08-25T17:16:34;45.86;20.40
72710;SHT30;60827;48.398;-4.498;2022-08-25T17:19:02;45.76;20.10
72710;SHT30;60827;48.398;-4.498;2022-08-25T17:21:33;45.06;19.81
72710;SHT30;60827;48.398;-4.498;2022-08-25T17:24:00;44.72;20.50
72710;SHT30;60827;48.398;-4.498;2022-08-25T17:26:26;44.61;20.51
72710;SHT30;60827;48.398;-4.498;2022-08-25T17:28:52;44.50;20.74
72710;SHT30;60827;48.398;-4.498;2022-08-25T17:31:18;44.40;20.76